Time;durP1;ratioP1;P1;durP2;ratioP2;P2;SDS_P1;SDS_P2;PMS_P1;PMS_P2;Temp;Humidity;BMP_temperature;BMP_pressure;BME280_temperature;BME280_humidity;BME280_pressure;Samples;Min_cycle;Max_cycle;Signal;HPM_P1;HPM_P2
2021/11/23 00:00:14;;;;;;;15.77;10.57;;;;;;;5.51;100.00;99467.75;5036007;28;20110;-59
2021/11/23 00:02:41;;;;;;;15.77;10.37;;;;;;;5.43;100.00;99471.84;5033419;28;20127;-60
2021/11/23 00:05:08;;;;;;;16.60;10.80;;;;;;;5.45;100.00;99465.09;5033951;28;20195;-59
2021/11/23 00:07:34;;;;;;;17.57;10.80;;;;;;;5.38;100.00;99470.94;5035597;28;20037;-60
2021/11/23 00:09:59;;;;;;;16.30;11.07;;;;;;;5.47;100.00;99480.41;5036151;28;20075;-60
2021/11/23 00:12:25;;;;;;;16.87;11.67;;;;;;;5.41;100.00;99480.28;5034467;28;20402;-60
2021/11/23 00:14:51;;;;;;;16.13;10.97;;;;;;;5.41;100.00;99481.16;5035647;28;20056;-60
2021/11/23 00:17:17;;;;;;;14.90;9.77;;;;;;;5.40;100.00;99489.59;5035114;28;20041;-59
2021/11/23 00:19:43;;;;;;;14.50;9.80;;;;;;;5.44;100.00;99493.91;5033203;28;20095;-60
2021/11/23 00:22:09;;;;;;;15.07;10.60;;;;;;;5.28;100.00;99491.09;5035587;28;20025;-59
2021/11/23 00:24:35;;;;;;;14.97;10.73;;;;;;;5.31;100.00;99494.53;5035430;28;20037;-61
2021/11/23 00:27:01;;;;;;;14.60;10.07;;;;;;;5.37;100.00;99497.19;5034579;28;20112;-59
2021/11/23 00:29:26;;;;;;;13.70;9.50;;;;;;;5.32;100.00;99506.44;5034613;28;20026;-60
2021/11/23 00:31:52;;;;;;;14.37;11.13;;;;;;;5.35;100.00;99501.38;5036758;28;20432;-59
2021/11/23 00:34:17;;;;;;;14.53;10.03;;;;;;;5.39;100.00;99497.19;5040767;28;20112;-58
2021/11/23 00:36:43;;;;;;;13.40;9.80;;;;;;;5.37;100.00;99498.88;5032065;28;20482;-59
2021/11/23 00:39:08;;;;;;;15.13;9.83;;;;;;;5.35;100.00;99503.94;5032441;28;20040;-60
2021/11/23 00:41:33;;;;;;;14.47;10.23;;;;;;;5.36;100.00;99505.66;5038693;28;20029;-58
2021/11/23 00:43:59;;;;;;;15.53;10.37;;;;;;;5.38;100.00;99508.22;5036627;28;20427;-60
2021/11/23 00:46:24;;;;;;;13.27;9.27;;;;;;;5.31;100.00;99511.47;5031822;28;20057;-60
2021/11/23 00:48:51;;;;;;;14.53;10.50;;;;;;;5.38;100.00;99515.84;5030823;28;20044;-60
2021/11/23 00:51:16;;;;;;;12.50;9.83;;;;;;;5.35;100.00;99514.09;5034440;28;20478;-60
2021/11/23 00:53:42;;;;;;;13.67;10.07;;;;;;;5.24;100.00;99507.13;5035561;28;20336;-59
2021/11/23 00:56:08;;;;;;;16.87;10.80;;;;;;;5.23;100.00;99510.50;5038989;28;20431;-59
2021/11/23 00:58:34;;;;;;;13.03;9.53;;;;;;;5.27;100.00;99510.56;5037017;28;20380;-58
2021/11/23 01:01:00;;;;;;;14.23;9.83;;;;;;;5.23;100.00;99511.38;5035544;28;20383;-59
2021/11/23 01:03:29;;;;;;;15.50;9.53;;;;;;;5.15;100.00;99502.75;5033402;28;20141;-59
2021/11/23 01:05:58;;;;;;;14.33;10.37;;;;;;;5.18;100.00;99507.06;5034061;28;20033;-61
2021/11/23 01:08:24;;;;;;;11.67;9.03;;;;;;;5.12;100.00;99507.78;5039190;28;20039;-59
2021/11/23 01:10:51;;;;;;;13.80;10.93;;;;;;;5.10;100.00;99506.91;5036369;28;20108;-59
2021/11/23 01:13:17;;;;;;;14.53;10.60;;;;;;;5.18;100.00;99510.41;5033085;28;20387;-59
2021/11/23 01:15:43;;;;;;;14.50;9.57;;;;;;;5.10;100.00;99516.22;5033050;28;20030;-59
2021/11/23 01:18:08;;;;;;;14.17;9.57;;;;;;;5.07;100.00;99522.97;5036926;28;20037;-58
2021/11/23 01:20:36;;;;;;;13.83;9.57;;;;;;;5.09;100.00;99524.69;5034766;28;20549;-59
2021/11/23 01:23:01;;;;;;;15.40;9.90;;;;;;;5.18;100.00;99517.22;5035540;28;20072;-58
2021/11/23 01:25:27;;;;;;;13.27;9.73;;;;;;;5.06;100.00;99521.25;5039068;28;20033;-60
2021/11/23 01:27:52;;;;;;;14.70;10.63;;;;;;;5.00;100.00;99523.69;5038637;28;20037;-60
2021/11/23 01:30:18;;;;;;;13.50;10.40;;;;;;;5.07;100.00;99529.72;5033431;28;20029;-60
2021/11/23 01:32:44;;;;;;;13.53;10.03;;;;;;;5.05;100.00;99531.38;5032904;28;20036;-59
2021/11/23 01:35:14;;;;;;;15.77;11.17;;;;;;;5.02;100.00;99531.34;5034683;28;20037;-58
2021/11/23 01:37:42;;;;;;;13.50;10.47;;;;;;;4.99;100.00;99529.59;5035103;28;20052;-60
2021/11/23 01:40:10;;;;;;;13.63;10.90;;;;;;;5.00;100.00;99533.00;5034811;28;20117;-60
2021/11/23 01:42:36;;;;;;;14.97;11.17;;;;;;;5.02;100.00;99538.94;5032062;28;20369;-60
2021/11/23 01:45:02;;;;;;;15.57;10.63;;;;;;;5.03;100.00;99536.44;5036003;28;20044;-61
2021/11/23 01:47:28;;;;;;;15.40;10.63;;;;;;;4.96;100.00;99534.66;5036321;28;20075;-58
2021/11/23 01:49:53;;;;;;;18.37;12.03;;;;;;;4.93;100.00;99536.25;5034479;28;20394;-61
2021/11/23 01:52:19;;;;;;;14.57;10.60;;;;;;;4.99;100.00;99541.44;5034659;28;20036;-60
2021/11/23 01:54:45;;;;;;;14.80;10.53;;;;;;;4.95;100.00;99530.38;5036725;28;20388;-57
2021/11/23 01:57:11;;;;;;;15.93;11.97;;;;;;;4.96;100.00;99541.41;5038563;28;20505;-58
2021/11/23 01:59:36;;;;;;;17.63;11.53;;;;;;;5.03;100.00;99535.59;5036588;28;20033;-59
2021/11/23 02:02:02;;;;;;;14.00;10.97;;;;;;;4.92;100.00;99537.09;5037777;28;20025;-59
2021/11/23 02:04:27;;;;;;;15.07;9.80;;;;;;;4.98;100.00;99552.44;5043794;28;20444;-57
2021/11/23 02:06:53;;;;;;;14.60;10.47;;;;;;;4.93;100.00;99542.19;5036625;28;20045;-54
2021/11/23 02:09:18;;;;;;;13.70;9.97;;;;;;;4.91;100.00;99532.84;5036784;28;20025;-57
2021/11/23 02:11:44;;;;;;;14.53;10.20;;;;;;;4.85;100.00;99548.81;5035052;28;20394;-57
2021/11/23 02:14:11;;;;;;;14.43;9.83;;;;;;;4.81;100.00;99541.97;5035953;28;20025;-57
2021/11/23 02:16:36;;;;;;;14.40;10.33;;;;;;;4.85;100.00;99538.66;5033766;28;20065;-52
2021/11/23 02:19:02;;;;;;;17.37;11.20;;;;;;;4.88;100.00;99546.31;5038183;28;20069;-52
2021/11/23 02:21:28;;;;;;;14.30;11.00;;;;;;;4.82;100.00;99558.06;5039933;28;20052;-57
2021/11/23 02:23:54;;;;;;;14.63;9.80;;;;;;;4.84;100.00;99554.72;5038293;28;20061;-53
2021/11/23 02:26:19;;;;;;;14.97;9.63;;;;;;;4.81;100.00;99554.66;5037266;28;20510;-52
2021/11/23 02:28:45;;;;;;;16.37;10.60;;;;;;;4.83;100.00;99559.78;5035857;28;20029;-53
2021/11/23 02:31:11;;;;;;;14.90;10.90;;;;;;;4.78;100.00;99556.31;5035311;28;20028;-55
2021/11/23 02:33:37;;;;;;;16.33;11.03;;;;;;;4.76;100.00;99547.78;5035751;28;20110;-53
2021/11/23 02:36:06;;;;;;;17.93;12.13;;;;;;;4.74;100.00;99542.69;5035412;28;20094;-56
2021/11/23 02:38:33;;;;;;;14.37;11.17;;;;;;;4.84;100.00;99548.78;5035585;28;20399;-54
2021/11/23 02:41:01;;;;;;;13.90;10.70;;;;;;;4.77;100.00;99549.50;5038730;28;20029;-52
2021/11/23 02:43:27;;;;;;;13.97;10.33;;;;;;;4.71;100.00;99554.47;5038665;28;20422;-53
2021/11/23 02:45:53;;;;;;;12.77;9.57;;;;;;;4.69;100.00;99551.03;5034992;28;20108;-52
2021/11/23 02:48:19;;;;;;;13.23;10.47;;;;;;;4.78;100.00;99556.31;5033810;28;20028;-52
2021/11/23 02:50:49;;;;;;;13.63;10.30;;;;;;;4.82;100.00;99547.91;5038402;28;20487;-54
2021/11/23 02:53:15;;;;;;;14.03;10.43;;;;;;;4.77;100.00;99552.03;5037952;28;20047;-52
2021/11/23 02:55:40;;;;;;;13.37;9.80;;;;;;;4.81;100.00;99552.13;5036955;28;20399;-54
2021/11/23 02:58:07;;;;;;;13.07;9.80;;;;;;;4.81;100.00;99558.88;5034599;28;20017;-53
2021/11/23 03:00:33;;;;;;;13.17;9.60;;;;;;;4.88;100.00;99558.19;5038861;28;20455;-54
2021/11/23 03:02:59;;;;;;;12.80;10.60;;;;;;;4.89;100.00;99557.34;5036636;28;20029;-55
2021/11/23 03:05:26;;;;;;;16.17;10.70;;;;;;;4.81;100.00;99558.88;5034810;28;20033;-56
2021/11/23 03:07:53;;;;;;;13.57;9.60;;;;;;;4.74;100.00;99562.16;5035106;28;20029;-54
2021/11/23 03:10:21;;;;;;;10.30;8.40;;;;;;;4.74;100.00;99564.69;5037957;28;20033;-53
2021/11/23 03:12:49;;;;;;;12.97;9.27;;;;;;;4.76;100.00;99565.56;5037989;28;20482;-60
2021/11/23 03:15:17;;;;;;;11.70;8.90;;;;;;;4.76;100.00;99558.81;5033772;28;20037;-55
2021/11/23 03:17:43;;;;;;;11.60;8.93;;;;;;;4.80;100.00;99547.88;5034415;28;20036;-59
2021/11/23 03:20:10;;;;;;;13.80;10.00;;;;;;;4.83;100.00;99547.94;5038424;28;20553;-60
2021/11/23 03:22:36;;;;;;;14.37;10.40;;;;;;;4.87;100.00;99543.78;5035160;28;20033;-60
2021/11/23 03:25:03;;;;;;;11.93;9.53;;;;;;;4.87;100.00;99547.19;5035775;28;20033;-60
2021/11/23 03:27:28;;;;;;;11.67;8.93;;;;;;;4.75;100.00;99556.25;5034082;28;20030;-60
2021/11/23 03:29:54;;;;;;;14.17;8.90;;;;;;;4.71;100.00;99554.47;5037261;28;20086;-57
2021/11/23 03:32:20;;;;;;;12.37;9.17;;;;;;;4.69;100.00;99556.13;5034633;28;20109;-60
2021/11/23 03:34:47;;;;;;;16.13;9.83;;;;;;;4.64;100.00;99550.09;5033525;28;20379;-60
2021/11/23 03:37:16;;;;;;;14.40;9.57;;;;;;;4.68;100.00;99559.47;5035952;28;20029;-60
2021/11/23 03:39:42;;;;;;;13.30;9.57;;;;;;;4.65;100.00;99564.50;5038449;28;20043;-59
2021/11/23 03:42:08;;;;;;;15.13;10.70;;;;;;;4.65;100.00;99567.06;5035331;28;20078;-58
2021/11/23 03:44:35;;;;;;;13.47;9.63;;;;;;;4.63;100.00;99567.00;5036589;28;20034;-59
2021/11/23 03:47:02;;;;;;;13.90;10.40;;;;;;;4.60;100.00;99562.75;5034726;28;20049;-58
2021/11/23 03:49:28;;;;;;;12.87;9.10;;;;;;;4.53;100.00;99560.06;5035733;28;20028;-59
2021/11/23 03:51:55;;;;;;;11.13;9.13;;;;;;;4.59;100.00;99566.09;5036726;28;20487;-58
2021/11/23 03:54:21;;;;;;;16.17;9.53;;;;;;;4.57;100.00;99567.78;5034065;28;20056;-59
2021/11/23 03:56:47;;;;;;;12.90;9.13;;;;;;;4.51;100.00;99575.25;5036588;28;20036;-60
2021/11/23 03:59:13;;;;;;;13.60;9.67;;;;;;;4.53;100.00;99571.06;5037682;28;20111;-60
2021/11/23 04:01:38;;;;;;;12.23;8.63;;;;;;;4.54;100.00;99569.41;5033790;28;20044;-60
2021/11/23 04:04:05;;;;;;;11.77;9.47;;;;;;;4.48;100.00;99576.88;5033240;28;20025;-59
2021/11/23 04:06:30;;;;;;;16.10;11.53;;;;;;;4.33;100.00;99579.94;5038075;28;20088;-58
2021/11/23 04:08:56;;;;;;;13.53;11.40;;;;;;;4.35;100.00;99582.53;5037119;28;20430;-60
2021/11/23 04:11:21;;;;;;;13.13;9.03;;;;;;;4.31;100.00;99575.66;5032763;28;20083;-58
2021/11/23 04:13:47;;;;;;;14.23;9.17;;;;;;;4.27;100.00;99577.28;5030236;28;20323;-59
2021/11/23 04:16:12;;;;;;;13.83;9.13;;;;;;;4.34;100.00;99580.81;5035661;28;20042;-60
2021/11/23 04:18:38;;;;;;;10.77;7.97;;;;;;;4.13;100.00;99583.75;5036334;28;20539;-59
2021/11/23 04:21:04;;;;;;;8.73;7.10;;;;;;;4.12;100.00;99587.09;5033571;28;20045;-59
2021/11/23 04:23:29;;;;;;;11.30;7.47;;;;;;;3.98;100.00;99583.41;5034248;28;20079;-58
2021/11/23 04:25:55;;;;;;;9.00;7.17;;;;;;;3.97;100.00;99582.56;5035768;28;20045;-59
2021/11/23 04:28:21;;;;;;;10.87;8.13;;;;;;;3.88;100.00;99600.09;5034312;28;20163;-58
2021/11/23 04:30:47;;;;;;;8.50;7.20;;;;;;;3.81;100.00;99599.94;5032920;28;20025;-59
2021/11/23 04:33:14;;;;;;;9.30;6.93;;;;;;;3.83;100.00;99604.19;5032478;28;20067;-59
2021/11/23 04:35:40;;;;;;;11.83;7.13;;;;;;;3.72;100.00;99615.78;5036629;28;20029;-59
2021/11/23 04:38:07;;;;;;;9.10;7.13;;;;;;;3.62;100.00;99613.84;5034445;28;20058;-60
2021/11/23 04:40:32;;;;;;;7.27;5.97;;;;;;;3.55;100.00;99624.66;5033821;28;20029;-56
2021/11/23 04:42:58;;;;;;;11.53;7.67;;;;;;;3.54;100.00;99616.19;5031567;28;20086;-60
2021/11/23 04:45:23;;;;;;;10.00;6.53;;;;;;;3.65;100.00;99627.44;5035913;28;20033;-60
2021/11/23 04:47:49;;;;;;;9.60;6.17;;;;;;;3.58;100.00;99628.13;5033400;28;20103;-58
2021/11/23 04:50:14;;;;;;;9.83;7.20;;;;;;;3.59;100.00;99626.44;5033692;28;20033;-59
2021/11/23 04:52:40;;;;;;;10.87;8.00;;;;;;;3.51;100.00;99633.00;5035014;28;20473;-58
2021/11/23 04:55:06;;;;;;;9.63;6.97;;;;;;;3.42;100.00;99631.09;5036059;28;20120;-58
2021/11/23 04:57:31;;;;;;;6.27;5.40;;;;;;;3.50;100.00;99638.88;5034305;28;20441;-59
2021/11/23 04:59:57;;;;;;;10.70;7.20;;;;;;;3.50;100.00;99642.28;5032627;28;20025;-59
2021/11/23 05:02:22;;;;;;;8.30;6.43;;;;;;;3.55;100.00;99635.66;5033817;28;20109;-58
2021/11/23 05:04:48;;;;;;;6.60;5.57;;;;;;;3.53;100.00;99646.56;5036833;28;20136;-60
2021/11/23 05:07:13;;;;;;;8.63;6.73;;;;;;;3.53;100.00;99632.22;5034019;28;20402;-58
2021/11/23 05:09:39;;;;;;;8.93;5.77;;;;;;;3.49;100.00;99638.03;5030786;28;20468;-59
2021/11/23 05:12:05;;;;;;;7.23;6.03;;;;;;;3.58;100.00;99655.16;5032861;28;20764;-59
2021/11/23 05:14:30;;;;;;;9.77;6.17;;;;;;;3.45;100.00;99648.03;5033333;28;20515;-60
2021/11/23 05:16:56;;;;;;;10.33;7.50;;;;;;;3.38;100.00;99648.72;5032531;28;20076;-59
2021/11/23 05:19:22;;;;;;;8.33;6.57;;;;;;;3.48;100.00;99643.91;5030804;28;20052;-59
2021/11/23 05:21:47;;;;;;;7.93;6.30;;;;;;;3.40;100.00;99650.47;5035360;28;20206;-60
2021/11/23 05:24:14;;;;;;;9.90;7.77;;;;;;;3.37;100.00;99645.31;5033443;28;20115;-60
2021/11/23 05:26:40;;;;;;;9.67;7.40;;;;;;;3.30;100.00;99648.53;5032290;28;20064;-56
2021/11/23 05:29:06;;;;;;;10.83;6.47;;;;;;;3.34;100.00;99649.47;5032631;28;20485;-59
2021/11/23 05:31:33;;;;;;;6.90;5.93;;;;;;;3.25;100.00;99642.47;5035911;28;20468;-56
2021/11/23 05:33:59;;;;;;;6.53;5.17;;;;;;;3.31;100.00;99651.91;5034457;28;20467;-60
2021/11/23 05:36:24;;;;;;;9.27;6.53;;;;;;;3.12;100.00;99653.09;5032873;28;20029;-56
2021/11/23 05:38:50;;;;;;;7.87;6.47;;;;;;;3.01;100.00;99657.84;5032637;28;20431;-60
2021/11/23 05:41:16;;;;;;;9.60;6.57;;;;;;;3.05;100.00;99666.44;5034507;28;20432;-59
2021/11/23 05:43:41;;;;;;;8.37;6.20;;;;;;;3.05;100.00;99661.34;5034793;28;20472;-59
2021/11/23 05:46:07;;;;;;;9.63;7.07;;;;;;;3.04;100.00;99664.69;5032198;28;20091;-59
2021/11/23 05:48:32;;;;;;;9.27;5.80;;;;;;;2.97;100.00;99668.72;5032751;28;20040;-59
2021/11/23 05:51:03;;;;;;;8.37;6.63;;;;;;;2.98;100.00;99672.97;5034208;28;20068;-56
2021/11/23 05:53:30;;;;;;;10.37;7.37;;;;;;;3.00;100.00;99678.97;5034978;28;20027;-57
2021/11/23 05:55:56;;;;;;;11.20;6.90;;;;;;;2.96;100.00;99676.28;5036147;28;20034;-57
2021/11/23 05:58:21;;;;;;;11.57;6.70;;;;;;;2.99;100.00;99677.25;5039058;28;20037;-60
2021/11/23 06:00:47;;;;;;;8.30;6.73;;;;;;;2.99;100.00;99683.97;5038288;28;20502;-59
2021/11/23 06:03:12;;;;;;;8.50;6.47;;;;;;;2.88;100.00;99688.75;5037973;28;20041;-59
2021/11/23 06:05:37;;;;;;;8.97;7.37;;;;;;;2.88;100.00;99700.56;5036534;28;20112;-56
2021/11/23 06:08:03;;;;;;;8.80;6.60;;;;;;;2.88;100.00;99696.34;5036363;28;20040;-59
2021/11/23 06:10:28;;;;;;;9.73;7.13;;;;;;;2.88;100.00;99701.41;5039047;28;20025;-59
2021/11/23 06:12:54;;;;;;;9.27;6.43;;;;;;;2.80;100.00;99710.44;5036841;28;20762;-56
2021/11/23 06:15:21;;;;;;;12.53;7.63;;;;;;;2.87;100.00;99712.34;5037517;28;20040;-57
2021/11/23 06:17:47;;;;;;;11.10;6.43;;;;;;;2.79;100.00;99715.47;5036732;28;20044;-59
2021/11/23 06:20:13;;;;;;;8.53;7.07;;;;;;;2.96;100.00;99720.22;5037248;28;20041;-57
2021/11/23 06:22:39;;;;;;;11.47;7.20;;;;;;;2.95;100.00;99720.16;5036908;28;20377;-58
2021/11/23 06:25:07;;;;;;;9.87;7.37;;;;;;;2.96;100.00;99717.69;5034270;28;20060;-58
2021/11/23 06:27:34;;;;;;;11.07;7.50;;;;;;;2.98;100.00;99720.25;5036154;28;20037;-57
2021/11/23 06:30:00;;;;;;;9.20;7.07;;;;;;;2.99;100.00;99721.97;5043182;28;20032;-58
2021/11/23 06:32:26;;;;;;;8.73;7.37;;;;;;;3.09;100.00;99726.50;5036997;28;20112;-57
2021/11/23 06:34:51;;;;;;;9.63;7.97;;;;;;;3.10;100.00;99734.09;5041589;28;20078;-57
2021/11/23 06:37:17;;;;;;;11.97;9.17;;;;;;;3.12;100.00;99735.03;5040487;28;20585;-56
2021/11/23 06:39:42;;;;;;;11.87;8.40;;;;;;;3.15;100.00;99731.72;5037756;28;20025;-59
2021/11/23 06:42:08;;;;;;;12.00;8.30;;;;;;;3.20;100.00;99742.84;5037122;28;20048;-59
2021/11/23 06:44:33;;;;;;;11.97;8.07;;;;;;;3.21;100.00;99737.81;5035000;28;20040;-58
2021/11/23 06:46:59;;;;;;;10.00;6.70;;;;;;;3.22;100.00;99734.44;5038874;28;20052;-58
2021/11/23 06:49:24;;;;;;;10.43;7.87;;;;;;;3.23;100.00;99736.19;5038153;28;20033;-54
2021/11/23 06:51:50;;;;;;;9.50;7.70;;;;;;;3.30;100.00;99742.28;5034359;28;20041;-56
2021/11/23 06:54:15;;;;;;;10.20;7.23;;;;;;;3.28;100.00;99741.38;5036026;28;20037;-58
2021/11/23 06:56:41;;;;;;;10.83;8.30;;;;;;;3.34;100.00;99736.47;5039138;28;20033;-56
2021/11/23 06:59:07;;;;;;;7.53;6.63;;;;;;;3.33;100.00;99747.44;5044473;28;20029;-58
2021/11/23 07:01:32;;;;;;;8.70;7.17;;;;;;;3.33;100.00;99737.28;5034386;28;20342;-57
2021/11/23 07:03:57;;;;;;;9.20;7.80;;;;;;;3.39;100.00;99744.22;5037300;28;20035;-56
2021/11/23 07:06:23;;;;;;;9.93;8.67;;;;;;;3.44;100.00;99746.03;5041841;28;20039;-55
2021/11/23 07:08:49;;;;;;;10.30;7.10;;;;;;;3.48;100.00;99757.16;5040748;28;20464;-57
2021/11/23 07:11:14;;;;;;;9.03;6.83;;;;;;;3.59;100.00;99763.34;5034601;28;20064;-58
2021/11/23 07:13:40;;;;;;;9.87;6.90;;;;;;;3.63;100.00;99758.41;5032613;28;20116;-55
2021/11/23 07:16:06;;;;;;;10.73;7.70;;;;;;;3.74;100.00;99760.34;5038023;28;20033;-57
2021/11/23 07:18:31;;;;;;;10.10;7.30;;;;;;;3.66;100.00;99768.63;5040053;28;20048;-55
2021/11/23 07:20:57;;;;;;;8.13;5.90;;;;;;;3.63;100.00;99767.69;5036298;28;20033;-58
2021/11/23 07:23:24;;;;;;;8.50;7.13;;;;;;;3.66;100.00;99766.09;5035421;28;20040;-56
2021/11/23 07:25:49;;;;;;;9.70;7.30;;;;;;;3.77;100.00;99768.91;5036267;28;20120;-57
2021/11/23 07:28:16;;;;;;;8.80;7.67;;;;;;;3.85;100.00;99766.56;5038139;28;20143;-57
2021/11/23 07:30:41;;;;;;;15.23;8.70;;;;;;;3.90;100.00;99768.41;5035988;28;20037;-57
2021/11/23 07:33:06;;;;;;;17.27;11.47;;;;;;;3.95;100.00;99758.34;5035958;28;20387;-56
2021/11/23 07:35:32;;;;;;;11.67;8.23;;;;;;;4.06;100.00;99764.59;5037547;28;20033;-56
2021/11/23 07:37:59;;;;;;;8.70;6.93;;;;;;;4.08;100.00;99760.38;5038333;28;20029;-56
2021/11/23 07:40:24;;;;;;;9.63;6.83;;;;;;;4.18;100.00;99761.47;5033839;28;20119;-57
2021/11/23 07:42:49;;;;;;;8.77;7.07;;;;;;;4.30;100.00;99760.09;5035606;28;20402;-58
2021/11/23 07:45:15;;;;;;;7.20;5.77;;;;;;;4.30;100.00;99759.22;5037659;28;20042;-56
2021/11/23 07:47:40;;;;;;;8.43;5.90;;;;;;;4.15;100.00;99769.88;5035895;28;20057;-57
2021/11/23 07:50:06;;;;;;;10.50;7.57;;;;;;;4.30;100.00;99764.31;5034181;28;20418;-56
2021/11/23 07:52:32;;;;;;;12.13;8.87;;;;;;;4.26;100.00;99758.31;5037043;28;20025;-54
2021/11/23 07:54:59;;;;;;;9.30;6.87;;;;;;;4.36;100.00;99759.41;5037385;28;20033;-58
2021/11/23 07:57:24;;;;;;;8.47;6.57;;;;;;;4.38;100.00;99768.75;5034742;28;20083;-58
2021/11/23 07:59:50;;;;;;;13.90;9.50;;;;;;;4.32;100.00;99766.09;5035497;28;20037;-57
2021/11/23 08:02:15;;;;;;;10.47;6.53;;;;;;;4.24;100.00;99770.13;5035372;28;20047;-59
2021/11/23 08:04:41;;;;;;;7.30;5.40;;;;;;;4.19;100.00;99786.03;5037841;28;20029;-59
2021/11/23 08:07:06;;;;;;;7.80;6.20;;;;;;;4.16;100.00;99786.81;5036391;28;20032;-57
2021/11/23 08:09:32;;;;;;;5.93;4.90;;;;;;;4.03;100.00;99783.09;5034887;28;20033;-59
2021/11/23 08:11:57;;;;;;;6.87;5.70;;;;;;;4.07;100.00;99787.44;5041275;28;20024;-56
2021/11/23 08:14:24;;;;;;;6.97;6.13;;;;;;;4.13;100.00;99780.00;5039623;28;20121;-58
2021/11/23 08:16:50;;;;;;;7.50;5.20;;;;;;;4.16;100.00;99780.91;5036128;28;20518;-58
2021/11/23 08:19:15;;;;;;;5.20;4.70;;;;;;;4.05;99.49;99773.88;5033145;28;20114;-58
2021/11/23 08:21:41;;;;;;;5.97;4.47;;;;;;;4.07;99.28;99782.34;5037718;28;20037;-59
2021/11/23 08:24:07;;;;;;;6.13;4.07;;;;;;;4.00;100.00;99779.63;5037086;28;20028;-56
2021/11/23 08:26:33;;;;;;;12.60;8.17;;;;;;;4.08;100.00;99780.69;5034553;28;20107;-59
2021/11/23 08:28:58;;;;;;;11.50;7.27;;;;;;;4.20;100.00;99783.53;5033420;28;20038;-58
2021/11/23 08:31:24;;;;;;;8.83;6.30;;;;;;;4.29;100.00;99781.22;5032782;28;20539;-59
2021/11/23 08:33:49;;;;;;;6.80;5.77;;;;;;;4.24;100.00;99789.56;5035526;28;20035;-59
2021/11/23 08:36:15;;;;;;;5.03;4.13;;;;;;;4.17;100.00;99786.00;5036363;28;20055;-58
2021/11/23 08:38:40;;;;;;;5.43;3.97;;;;;;;4.28;99.43;99788.81;5035730;28;20036;-60
2021/11/23 08:41:06;;;;;;;5.87;4.77;;;;;;;4.12;98.02;99785.00;5033647;28;20025;-59
2021/11/23 08:43:32;;;;;;;5.80;5.30;;;;;;;4.35;97.34;99777.97;5032993;28;20029;-59
2021/11/23 08:45:58;;;;;;;5.20;4.67;;;;;;;4.36;94.94;99788.19;5049390;28;20060;-59
2021/11/23 08:48:24;;;;;;;12.43;6.30;;;;;;;4.45;96.44;99788.41;5032399;28;20037;-59
2021/11/23 08:50:49;;;;;;;5.23;4.03;;;;;;;4.78;95.74;99783.25;5033693;28;20041;-61
2021/11/23 08:53:15;;;;;;;7.30;5.73;;;;;;;4.70;95.39;99784.75;5032748;28;20083;-61
2021/11/23 08:55:40;;;;;;;8.00;4.30;;;;;;;4.87;92.44;99785.13;5035250;28;20039;-60
2021/11/23 08:58:07;;;;;;;4.57;4.07;;;;;;;4.82;91.73;99790.09;5037224;28;20422;-60
2021/11/23 09:00:35;;;;;;;4.93;3.80;;;;;;;4.92;88.54;99788.63;5036313;28;20025;-61
2021/11/23 09:03:00;;;;;;;4.60;4.20;;;;;;;4.84;89.70;99783.34;5038598;28;20028;-60
2021/11/23 09:05:32;;;;;;;5.67;5.07;;;;;;;5.23;89.26;99787.59;5036243;28;20033;-62
2021/11/23 09:08:01;;;;;;;5.50;4.53;;;;;;;5.44;86.23;99778.72;5035651;28;20481;-62
2021/11/23 09:10:28;;;;;;;4.70;3.80;;;;;;;5.51;85.07;99787.34;5032342;28;20025;-62
2021/11/23 09:12:56;;;;;;;5.03;4.10;;;;;;;5.37;87.86;99784.50;5034551;28;20652;-62
2021/11/23 09:15:22;;;;;;;4.90;4.40;;;;;;;5.39;86.01;99781.97;5035926;28;20036;-63
2021/11/23 09:17:49;;;;;;;5.03;4.10;;;;;;;5.36;85.53;99781.94;5037754;28;20044;-62
2021/11/23 09:20:15;;;;;;;5.07;4.53;;;;;;;5.42;87.00;99782.06;5032664;28;20507;-62
2021/11/23 09:22:41;;;;;;;7.10;4.47;;;;;;;5.34;86.36;99776.81;5036597;28;20102;-58
2021/11/23 09:25:09;;;;;;;4.13;3.63;;;;;;;5.55;86.29;99785.69;5042712;28;20382;-60
2021/11/23 09:27:34;;;;;;;4.60;4.20;;;;;;;5.74;86.39;99782.66;5033162;28;20068;-59
2021/11/23 09:30:00;;;;;;;4.47;4.07;;;;;;;5.79;82.25;99786.16;5036222;28;20120;-58
2021/11/23 09:32:27;;;;;;;4.70;3.53;;;;;;;5.51;83.83;99783.09;5041154;28;20040;-59
2021/11/23 09:34:53;;;;;;;7.17;5.27;;;;;;;5.77;82.90;99791.22;5036743;28;20364;-63
2021/11/23 09:37:19;;;;;;;3.67;3.37;;;;;;;5.99;78.84;99782.31;5036250;28;20527;-59
2021/11/23 09:39:45;;;;;;;4.17;3.20;;;;;;;6.12;76.03;99793.56;5036880;28;20039;-60
2021/11/23 09:42:10;;;;;;;5.40;4.10;;;;;;;5.66;78.46;99790.16;5037785;28;20372;-60
2021/11/23 09:44:36;;;;;;;3.47;3.17;;;;;;;5.76;78.57;99788.66;5041892;28;20491;-60
2021/11/23 09:47:02;;;;;;;14.93;4.87;;;;;;;5.77;78.70;99785.28;5038948;28;20049;-60
2021/11/23 09:49:28;;;;;;;7.60;3.80;;;;;;;5.64;79.03;99780.78;5040263;28;20045;-59
2021/11/23 09:51:53;;;;;;;4.97;3.43;;;;;;;5.70;79.36;99784.31;5042955;28;20033;-60
2021/11/23 09:54:19;;;;;;;4.00;3.07;;;;;;;5.68;79.94;99780.03;5041396;28;20040;-58
2021/11/23 09:56:46;;;;;;;4.07;3.63;;;;;;;5.45;82.73;99777.03;5037046;28;20034;-60
2021/11/23 09:59:13;;;;;;;4.07;2.90;;;;;;;5.71;82.08;99780.06;5044260;28;20032;-60
2021/11/23 10:01:47;;;;;;;5.00;3.90;;;;;;;5.99;79.89;99774.69;5039327;28;20025;-57
2021/11/23 10:04:13;;;;;;;3.20;2.97;;;;;;;6.06;77.91;99765.47;5034967;28;20079;-59
2021/11/23 10:06:55;;;;;;;7.00;3.60;;;;;;;6.06;77.58;99760.38;5037867;28;20045;-57
2021/11/23 10:09:26;;;;;;;5.23;3.40;;;;;;;6.06;76.52;99761.25;5039017;28;20029;-57
2021/11/23 10:11:52;;;;;;;4.40;3.60;;;;;;;5.93;77.70;99761.88;5039400;28;20554;-60
2021/11/23 10:14:17;;;;;;;4.13;3.50;;;;;;;6.19;77.24;99760.63;5037412;28;20034;-58
2021/11/23 10:16:46;;;;;;;3.97;3.20;;;;;;;6.30;74.66;99753.16;5039233;28;20055;-58
2021/11/23 10:19:14;;;;;;;4.97;3.70;;;;;;;6.20;76.73;99762.31;5039925;28;20111;-60
2021/11/23 10:21:56;;;;;;;6.50;3.83;;;;;;;6.02;79.20;99767.13;5036844;28;20037;-57
2021/11/23 10:24:22;;;;;;;6.20;3.40;;;;;;;6.10;79.59;99759.59;5040049;28;20013;-58
2021/11/23 10:26:49;;;;;;;4.80;3.83;;;;;;;6.12;79.67;99755.38;5040853;28;20037;-59
2021/11/23 10:29:16;;;;;;;4.67;3.73;;;;;;;6.12;79.85;99748.59;5040408;28;20118;-60
2021/11/23 10:31:44;;;;;;;7.97;4.00;;;;;;;6.18;79.11;99752.94;5042895;28;20040;-58
2021/11/23 10:34:12;;;;;;;3.83;3.47;;;;;;;5.98;81.53;99742.44;5038107;28;20022;-59
2021/11/23 10:36:41;;;;;;;4.00;3.50;;;;;;;5.96;82.10;99741.53;5038172;28;20029;-58
2021/11/23 10:39:26;;;;;;;4.10;3.70;;;;;;;6.15;80.01;99732.53;5031738;28;20581;-56
2021/11/23 10:41:54;;;;;;;4.07;3.73;;;;;;;6.00;80.23;99740.75;5035857;28;20059;-57
2021/11/23 10:44:32;;;;;;;6.17;3.73;;;;;;;6.05;79.77;99736.63;5037036;28;20032;-57
2021/11/23 10:47:00;;;;;;;3.90;3.40;;;;;;;6.11;78.59;99735.88;5035228;28;20041;-56
2021/11/23 10:49:36;;;;;;;4.20;3.30;;;;;;;5.94;80.69;99738.13;5033845;28;20042;-56
2021/11/23 10:52:04;;;;;;;4.47;4.07;;;;;;;5.85;83.14;99731.16;5034975;28;20056;-57
2021/11/23 10:54:34;;;;;;;5.10;4.00;;;;;;;5.89;86.46;99725.31;5036436;28;20044;-56
2021/11/23 10:57:00;;;;;;;4.30;3.87;;;;;;;5.92;83.46;99737.22;5035069;28;20399;-57
2021/11/23 10:59:26;;;;;;;4.30;3.90;;;;;;;5.59;84.18;99734.06;5033694;28;20021;-54
2021/11/23 11:01:52;;;;;;;5.33;4.83;;;;;;;5.68;85.98;99729.16;5036875;28;20037;-55
2021/11/23 11:04:19;;;;;;;4.30;3.77;;;;;;;5.75;87.09;99728.41;5038854;28;20025;-55
2021/11/23 11:06:47;;;;;;;7.60;4.47;;;;;;;5.96;86.20;99727.13;5035047;28;20025;-58
2021/11/23 11:09:14;;;;;;;5.60;4.00;;;;;;;6.02;84.62;99715.34;5034780;28;20484;-58
2021/11/23 11:11:39;;;;;;;4.77;3.77;;;;;;;5.90;85.66;99719.38;5037570;28;20068;-57
2021/11/23 11:14:06;;;;;;;4.47;3.80;;;;;;;5.74;87.01;99724.16;5037091;28;20094;-52
2021/11/23 11:16:35;;;;;;;4.33;3.93;;;;;;;5.93;85.43;99718.59;5034839;28;20034;-53
2021/11/23 11:19:13;;;;;;;4.00;3.60;;;;;;;6.09;83.37;99712.91;5035109;28;20048;-53
2021/11/23 11:22:05;;;;;;;6.40;4.90;;;;;;;6.19;82.58;99719.88;5036799;28;20117;-52
2021/11/23 11:24:44;;;;;;;6.03;4.23;;;;;;;6.17;81.76;99710.50;5035442;28;20471;-53